sensor_id;sensor_type;location;lat;lon;timestamp;pressure;altitude;pressure_sealevel;temperature
34310;BMP280;61664;48.112;11.662;2023-01-25T00:00:49;96862.16;;;6.03
34310;BMP280;61664;48.112;11.662;2023-01-25T00:03:16;96868.97;;;6.04
34310;BMP280;61664;48.112;11.662;2023-01-25T00:05:43;96863.28;;;5.98
34310;BMP280;61664;48.112;11.662;2023-01-25T00:08:10;96861.41;;;5.99
34310;BMP280;61664;48.112;11.662;2023-01-25T00:10:37;96860.63;;;5.98
34310;BMP280;61664;48.112;11.662;2023-01-25T00:13:04;96870.03;;;6.10
34310;BMP280;61664;48.112;11.662;2023-01-25T00:15:31;96884.81;;;6.15
34310;BMP280;61664;48.112;11.662;2023-01-25T00:17:58;96870.03;;;6.14
34310;BMP280;61664;48.112;11.662;2023-01-25T00:20:25;96868.91;;;6.15
34310;BMP280;61664;48.112;11.662;2023-01-25T00:22:52;96874.16;;;6.22
34310;BMP280;61664;48.112;11.662;2023-01-25T00:25:19;96870.34;;;6.19
34310;BMP280;61664;48.112;11.662;2023-01-25T00:27:45;96880.22;;;6.22
34310;BMP280;61664;48.112;11.662;2023-01-25T00:30:12;96871.50;;;6.18
34310;BMP280;61664;48.112;11.662;2023-01-25T00:36:01;96871.56;;;6.11
34310;BMP280;61664;48.112;11.662;2023-01-25T00:38:33;96871.94;;;6.13
34310;BMP280;61664;48.112;11.662;2023-01-25T00:41:00;96862.16;;;6.03
34310;BMP280;61664;48.112;11.662;2023-01-25T00:43:27;96864.81;;;6.03
34310;BMP280;61664;48.112;11.662;2023-01-25T00:46:00;96865.56;;;6.00
34310;BMP280;61664;48.112;11.662;2023-01-25T00:48:27;96865.97;;;5.95
34310;BMP280;61664;48.112;11.662;2023-01-25T00:50:59;96867.47;;;5.99
34310;BMP280;61664;48.112;11.662;2023-01-25T00:53:26;96865.56;;;6.04
34310;BMP280;61664;48.112;11.662;2023-01-25T00:55:53;96858.34;;;6.04
34310;BMP280;61664;48.112;11.662;2023-01-25T00:58:20;96864.75;;;6.07
34310;BMP280;61664;48.112;11.662;2023-01-25T01:00:47;96862.16;;;5.99
34310;BMP280;61664;48.112;11.662;2023-01-25T01:03:15;96860.66;;;6.02
34310;BMP280;61664;48.112;11.662;2023-01-25T01:05:42;96867.03;;;6.08
34310;BMP280;61664;48.112;11.662;2023-01-25T01:08:14;96862.91;;;6.00
34310;BMP280;61664;48.112;11.662;2023-01-25T01:10:41;96878.06;;;6.03
34310;BMP280;61664;48.112;11.662;2023-01-25T01:13:08;96863.69;;;5.97
34310;BMP280;61664;48.112;11.662;2023-01-25T01:15:36;96864.47;;;5.94
34310;BMP280;61664;48.112;11.662;2023-01-25T01:18:03;96866.72;;;5.95
34310;BMP280;61664;48.112;11.662;2023-01-25T01:20:30;96867.47;;;5.96
34310;BMP280;61664;48.112;11.662;2023-01-25T01:22:57;96871.28;;;5.95
34310;BMP280;61664;48.112;11.662;2023-01-25T01:25:24;96869.38;;;5.95
34310;BMP280;61664;48.112;11.662;2023-01-25T01:27:50;96861.03;;;5.90
34310;BMP280;61664;48.112;11.662;2023-01-25T01:30:17;96857.66;;;5.89
34310;BMP280;61664;48.112;11.662;2023-01-25T01:32:44;96853.88;;;5.87
34310;BMP280;61664;48.112;11.662;2023-01-25T01:35:11;96856.56;;;5.83
34310;BMP280;61664;48.112;11.662;2023-01-25T01:37:41;96852.75;;;5.81
34310;BMP280;61664;48.112;11.662;2023-01-25T01:40:14;96847.09;;;5.75
34310;BMP280;61664;48.112;11.662;2023-01-25T01:43:04;96852.75;;;5.81
34310;BMP280;61664;48.112;11.662;2023-01-25T01:45:49;96855.41;;;5.81
34310;BMP280;61664;48.112;11.662;2023-01-25T01:50:55;96843.72;;;5.75
34310;BMP280;61664;48.112;11.662;2023-01-25T01:53:25;96844.13;;;5.66
34310;BMP280;61664;48.112;11.662;2023-01-25T01:55:56;96851.31;;;5.69
34310;BMP280;61664;48.112;11.662;2023-01-25T01:58:25;96844.13;;;5.66
34310;BMP280;61664;48.112;11.662;2023-01-25T02:00:52;96854.72;;;5.69
34310;BMP280;61664;48.112;11.662;2023-01-25T02:03:20;96849.44;;;5.66
34310;BMP280;61664;48.112;11.662;2023-01-25T02:09:01;96851.31;;;5.65
34310;BMP280;61664;48.112;11.662;2023-01-25T02:11:31;96846.03;;;5.65
34310;BMP280;61664;48.112;11.662;2023-01-25T02:13:59;96844.88;;;5.59
34310;BMP280;61664;48.112;11.662;2023-01-25T02:16:27;96853.25;;;5.61
34310;BMP280;61664;48.112;11.662;2023-01-25T02:18:58;96850.94;;;5.60
34310;BMP280;61664;48.112;11.662;2023-01-25T02:21:38;96847.97;;;5.54
34310;BMP280;61664;48.112;11.662;2023-01-25T02:24:27;96836.22;;;5.48
34310;BMP280;61664;48.112;11.662;2023-01-25T02:26:55;96835.09;;;5.49
34310;BMP280;61664;48.112;11.662;2023-01-25T02:29:25;96847.22;;;5.54
34310;BMP280;61664;48.112;11.662;2023-01-25T02:32:03;96840.41;;;5.53
34310;BMP280;61664;48.112;11.662;2023-01-25T02:34:30;96848.75;;;5.51
34310;BMP280;61664;48.112;11.662;2023-01-25T02:36:58;96838.50;;;5.53
34310;BMP280;61664;48.112;11.662;2023-01-25T02:39:27;96843.78;;;5.57
34310;BMP280;61664;48.112;11.662;2023-01-25T02:41:54;96832.81;;;5.58
34310;BMP280;61664;48.112;11.662;2023-01-25T02:44:26;96835.03;;;5.67
34310;BMP280;61664;48.112;11.662;2023-01-25T02:46:54;96823.69;;;5.63
34310;BMP280;61664;48.112;11.662;2023-01-25T02:49:21;96833.13;;;5.71
34310;BMP280;61664;48.112;11.662;2023-01-25T02:51:52;96827.44;;;5.73
34310;BMP280;61664;48.112;11.662;2023-01-25T02:54:25;96837.25;;;5.76
34310;BMP280;61664;48.112;11.662;2023-01-25T02:56:53;96833.47;;;5.77
34310;BMP280;61664;48.112;11.662;2023-01-25T02:59:20;96835.03;;;5.74
34310;BMP280;61664;48.112;11.662;2023-01-25T03:01:48;96822.16;;;5.65
34310;BMP280;61664;48.112;11.662;2023-01-25T03:06:42;96820.63;;;5.68
34310;BMP280;61664;48.112;11.662;2023-01-25T03:09:10;96823.28;;;5.72
34310;BMP280;61664;48.112;11.662;2023-01-25T03:11:37;96812.66;;;5.68
34310;BMP280;61664;48.112;11.662;2023-01-25T03:14:04;96817.59;;;5.73
34310;BMP280;61664;48.112;11.662;2023-01-25T03:16:31;96816.03;;;5.76
34310;BMP280;61664;48.112;11.662;2023-01-25T03:18:58;96824.00;;;5.76
34310;BMP280;61664;48.112;11.662;2023-01-25T03:21:26;96819.41;;;5.80
34310;BMP280;61664;48.112;11.662;2023-01-25T03:24:00;96808.44;;;5.78
34310;BMP280;61664;48.112;11.662;2023-01-25T03:26:28;96804.28;;;5.77
34310;BMP280;61664;48.112;11.662;2023-01-25T03:28:55;96807.66;;;5.81
34310;BMP280;61664;48.112;11.662;2023-01-25T03:31:22;96812.22;;;5.84
34310;BMP280;61664;48.112;11.662;2023-01-25T03:33:50;96811.47;;;5.83
34310;BMP280;61664;48.112;11.662;2023-01-25T03:36:17;96806.91;;;5.80
34310;BMP280;61664;48.112;11.662;2023-01-25T03:38:44;96814.88;;;5.84
34310;BMP280;61664;48.112;11.662;2023-01-25T03:41:11;96811.47;;;5.83
34310;BMP280;61664;48.112;11.662;2023-01-25T03:43:39;96788.06;;;5.71
34310;BMP280;61664;48.112;11.662;2023-01-25T03:46:06;96802.34;;;5.81
34310;BMP280;61664;48.112;11.662;2023-01-25T03:48:33;96802.38;;;5.77
34310;BMP280;61664;48.112;11.662;2023-01-25T03:51:00;96808.81;;;5.83
34310;BMP280;61664;48.112;11.662;2023-01-25T03:53:29;96807.66;;;5.84
34310;BMP280;61664;48.112;11.662;2023-01-25T03:56:03;96800.47;;;5.78
34310;BMP280;61664;48.112;11.662;2023-01-25T03:58:34;96806.53;;;5.78
34310;BMP280;61664;48.112;11.662;2023-01-25T04:01:03;96805.41;;;5.79
34310;BMP280;61664;48.112;11.662;2023-01-25T04:03:31;96806.94;;;5.77
34310;BMP280;61664;48.112;11.662;2023-01-25T04:05:58;96806.94;;;5.77
34310;BMP280;61664;48.112;11.662;2023-01-25T04:08:26;96810.38;;;5.74
34310;BMP280;61664;48.112;11.662;2023-01-25T04:11:06;96808.50;;;5.70
34310;BMP280;61664;48.112;11.662;2023-01-25T04:13:35;96807.38;;;5.64
34310;BMP280;61664;48.112;11.662;2023-01-25T04:16:08;96805.88;;;5.60
34310;BMP280;61664;48.112;11.662;2023-01-25T04:18:38;96789.63;;;5.54
34310;BMP280;61664;48.112;11.662;2023-01-25T04:21:06;96789.63;;;5.54
34310;BMP280;61664;48.112;11.662;2023-01-25T04:23:33;96782.41;;;5.58
34310;BMP280;61664;48.112;11.662;2023-01-25T04:26:04;96782.06;;;5.53
34310;BMP280;61664;48.112;11.662;2023-01-25T04:28:33;96781.25;;;5.59
34310;BMP280;61664;48.112;11.662;2023-01-25T04:31:01;96792.28;;;5.58
34310;BMP280;61664;48.112;11.662;2023-01-25T04:33:29;96790.38;;;5.58
34310;BMP280;61664;48.112;11.662;2023-01-25T04:35:56;96773.72;;;5.54
34310;BMP280;61664;48.112;11.662;2023-01-25T04:38:24;96778.25;;;5.61
34310;BMP280;61664;48.112;11.662;2023-01-25T04:40:51;96783.53;;;5.64
34310;BMP280;61664;48.112;11.662;2023-01-25T04:43:19;96776.31;;;5.65
34310;BMP280;61664;48.112;11.662;2023-01-25T04:45:46;96782.75;;;5.67
34310;BMP280;61664;48.112;11.662;2023-01-25T04:48:13;96774.78;;;5.67
34310;BMP280;61664;48.112;11.662;2023-01-25T04:50:42;96776.69;;;5.67
34310;BMP280;61664;48.112;11.662;2023-01-25T04:53:10;96766.84;;;5.64
34310;BMP280;61664;48.112;11.662;2023-01-25T04:55:37;96769.84;;;5.69
34310;BMP280;61664;48.112;11.662;2023-01-25T04:58:05;96760.78;;;5.63
34310;BMP280;61664;48.112;11.662;2023-01-25T05:00:32;96758.13;;;5.67
34310;BMP280;61664;48.112;11.662;2023-01-25T05:02:59;96758.50;;;5.65
34310;BMP280;61664;48.112;11.662;2023-01-25T05:05:26;96756.25;;;5.64
34310;BMP280;61664;48.112;11.662;2023-01-25T05:07:53;96755.88;;;5.62
34310;BMP280;61664;48.112;11.662;2023-01-25T05:10:20;96747.97;;;5.55
34310;BMP280;61664;48.112;11.662;2023-01-25T05:12:47;96757.81;;;5.54
34310;BMP280;61664;48.112;11.662;2023-01-25T05:15:14;96748.00;;;5.48
34310;BMP280;61664;48.112;11.662;2023-01-25T05:17:41;96751.03;;;5.46
34310;BMP280;61664;48.112;11.662;2023-01-25T05:20:09;96748.03;;;5.41
34310;BMP280;61664;48.112;11.662;2023-01-25T05:22:36;96750.69;;;5.37
34310;BMP280;61664;48.112;11.662;2023-01-25T05:25:03;96756.03;;;5.33
34310;BMP280;61664;48.112;11.662;2023-01-25T05:27:31;96748.88;;;5.23
34310;BMP280;61664;48.112;11.662;2023-01-25T05:29:58;96745.84;;;5.18
34310;BMP280;61664;48.112;11.662;2023-01-25T05:32:25;96752.66;;;5.19
34310;BMP280;61664;48.112;11.662;2023-01-25T05:34:52;96748.94;;;5.09
34310;BMP280;61664;48.112;11.662;2023-01-25T05:37:20;96735.72;;;5.02
34310;BMP280;61664;48.112;11.662;2023-01-25T05:39:47;96742.91;;;5.01
34310;BMP280;61664;48.112;11.662;2023-01-25T05:42:17;96739.84;;;4.99
34310;BMP280;61664;48.112;11.662;2023-01-25T05:44:44;96754.63;;;5.04
34310;BMP280;61664;48.112;11.662;2023-01-25T05:47:16;96745.16;;;5.03
34310;BMP280;61664;48.112;11.662;2023-01-25T05:49:43;96748.94;;;5.09
34310;BMP280;61664;48.112;11.662;2023-01-25T05:52:15;96727.75;;;4.98
34310;BMP280;61664;48.112;11.662;2023-01-25T05:54:42;96742.84;;;5.12
34310;BMP280;61664;48.112;11.662;2023-01-25T05:57:10;96745.50;;;5.12
34310;BMP280;61664;48.112;11.662;2023-01-25T05:59:36;96746.66;;;5.07
34310;BMP280;61664;48.112;11.662;2023-01-25T06:02:03;96734.56;;;5.06
34310;BMP280;61664;48.112;11.662;2023-01-25T06:04:30;96747.81;;;5.06
34310;BMP280;61664;48.112;11.662;2023-01-25T06:06:57;96748.94;;;5.02
34310;BMP280;61664;48.112;11.662;2023-01-25T06:09:24;96735.72;;;4.95
34310;BMP280;61664;48.112;11.662;2023-01-25T06:11:52;96735.31;;;4.96
34310;BMP280;61664;48.112;11.662;2023-01-25T06:14:19;96739.09;;;4.99
34310;BMP280;61664;48.112;11.662;2023-01-25T06:16:46;96733.47;;;4.93
34310;BMP280;61664;48.112;11.662;2023-01-25T06:19:13;96735.72;;;4.95
34310;BMP280;61664;48.112;11.662;2023-01-25T06:21:40;96735.72;;;4.95
34310;BMP280;61664;48.112;11.662;2023-01-25T06:24:07;96733.47;;;4.93
34310;BMP280;61664;48.112;11.662;2023-01-25T06:26:36;96727.81;;;4.91
34310;BMP280;61664;48.112;11.662;2023-01-25T06:29:05;96722.50;;;4.91
34310;BMP280;61664;48.112;11.662;2023-01-25T06:31:32;96730.47;;;4.91
34310;BMP280;61664;48.112;11.662;2023-01-25T06:34:00;96729.31;;;4.92
34310;BMP280;61664;48.112;11.662;2023-01-25T06:36:30;96726.66;;;4.92
34310;BMP280;61664;48.112;11.662;2023-01-25T06:38:57;96717.59;;;4.93
34310;BMP280;61664;48.112;11.662;2023-01-25T06:41:24;96722.81;;;5.00
34310;BMP280;61664;48.112;11.662;2023-01-25T06:43:51;96730.41;;;5.05
34310;BMP280;61664;48.112;11.662;2023-01-25T06:46:19;96714.88;;;5.04
34310;BMP280;61664;48.112;11.662;2023-01-25T06:48:46;96720.50;;;5.13
34310;BMP280;61664;48.112;11.662;2023-01-25T06:51:14;96717.13;;;5.13
34310;BMP280;61664;48.112;11.662;2023-01-25T06:53:44;96709.91;;;5.13
34310;BMP280;61664;48.112;11.662;2023-01-25T06:56:15;96708.00;;;5.21
34310;BMP280;61664;48.112;11.662;2023-01-25T06:58:44;96701.19;;;5.23
34310;BMP280;61664;48.112;11.662;2023-01-25T07:01:18;96694.00;;;5.24
34310;BMP280;61664;48.112;11.662;2023-01-25T07:03:54;96683.78;;;5.19
34310;BMP280;61664;48.112;11.662;2023-01-25T07:06:23;96689.81;;;5.23
34310;BMP280;61664;48.112;11.662;2023-01-25T07:08:51;96692.03;;;5.28
34310;BMP280;61664;48.112;11.662;2023-01-25T07:11:18;96688.25;;;5.29
34310;BMP280;61664;48.112;11.662;2023-01-25T07:13:46;96692.81;;;5.32
34310;BMP280;61664;48.112;11.662;2023-01-25T07:16:18;96693.13;;;5.37
34310;BMP280;61664;48.112;11.662;2023-01-25T07:18:46;96695.81;;;5.41
34310;BMP280;61664;48.112;11.662;2023-01-25T07:21:17;96683.28;;;5.38
34310;BMP280;61664;48.112;11.662;2023-01-25T07:23:47;96692.38;;;5.37
34310;BMP280;61664;48.112;11.662;2023-01-25T07:26:22;96682.16;;;5.39
34310;BMP280;61664;48.112;11.662;2023-01-25T07:28:49;96689.75;;;5.37
34310;BMP280;61664;48.112;11.662;2023-01-25T07:31:18;96690.50;;;5.37
34310;BMP280;61664;48.112;11.662;2023-01-25T07:33:50;96682.19;;;5.28
34310;BMP280;61664;48.112;11.662;2023-01-25T07:36:18;96692.03;;;5.31
34310;BMP280;61664;48.112;11.662;2023-01-25T07:38:46;96691.28;;;5.31
34310;BMP280;61664;48.112;11.662;2023-01-25T07:41:13;96692.78;;;5.28
34310;BMP280;61664;48.112;11.662;2023-01-25T07:43:42;96688.31;;;5.18
34310;BMP280;61664;48.112;11.662;2023-01-25T07:46:11;96688.69;;;5.17
34310;BMP280;61664;48.112;11.662;2023-01-25T07:48:44;96699.66;;;5.22
34310;BMP280;61664;48.112;11.662;2023-01-25T07:51:13;96693.25;;;5.16
34310;BMP280;61664;48.112;11.662;2023-01-25T07:53:55;96691.75;;;5.15
34310;BMP280;61664;48.112;11.662;2023-01-25T07:56:26;96698.91;;;5.22
34310;BMP280;61664;48.112;11.662;2023-01-25T07:58:59;96694.75;;;5.21
34310;BMP280;61664;48.112;11.662;2023-01-25T08:01:28;96695.50;;;5.25
34310;BMP280;61664;48.112;11.662;2023-01-25T08:03:55;96699.66;;;5.26
34310;BMP280;61664;48.112;11.662;2023-01-25T08:06:30;96695.06;;;5.30
34310;BMP280;61664;48.112;11.662;2023-01-25T08:09:10;96687.88;;;5.34
34310;BMP280;61664;48.112;11.662;2023-01-25T08:11:37;96696.94;;;5.36
34310;BMP280;61664;48.112;11.662;2023-01-25T08:14:04;96694.69;;;5.35
34310;BMP280;61664;48.112;11.662;2023-01-25T08:16:31;96688.22;;;5.36
34310;BMP280;61664;48.112;11.662;2023-01-25T08:19:01;96690.09;;;5.39
34310;BMP280;61664;48.112;11.662;2023-01-25T08:21:32;96687.03;;;5.44
34310;BMP280;61664;48.112;11.662;2023-01-25T08:24:02;96685.91;;;5.45
34310;BMP280;61664;48.112;11.662;2023-01-25T08:26:30;96685.13;;;5.48
34310;BMP280;61664;48.112;11.662;2023-01-25T08:28:57;96682.81;;;5.50
34310;BMP280;61664;48.112;11.662;2023-01-25T08:31:30;96682.44;;;5.55
34310;BMP280;61664;48.112;11.662;2023-01-25T08:33:59;96687.31;;;5.60
34310;BMP280;61664;48.112;11.662;2023-01-25T08:36:26;96686.19;;;5.61
34310;BMP280;61664;48.112;11.662;2023-01-25T08:39:04;96691.50;;;5.61
34310;BMP280;61664;48.112;11.662;2023-01-25T08:41:33;96683.19;;;5.56
34310;BMP280;61664;48.112;11.662;2023-01-25T08:44:00;96685.09;;;5.55
34310;BMP280;61664;48.112;11.662;2023-01-25T08:46:30;96682.44;;;5.55
34310;BMP280;61664;48.112;11.662;2023-01-25T08:49:00;96680.19;;;5.54
34310;BMP280;61664;48.112;11.662;2023-01-25T08:51:30;96675.28;;;5.52
34310;BMP280;61664;48.112;11.662;2023-01-25T08:54:11;96661.66;;;5.47
34310;BMP280;61664;48.112;11.662;2023-01-25T08:56:39;96682.81;;;5.57
34310;BMP280;61664;48.112;11.662;2023-01-25T08:59:11;96681.66;;;5.58
34310;BMP280;61664;48.112;11.662;2023-01-25T09:01:38;96667.22;;;5.63
34310;BMP280;61664;48.112;11.662;2023-01-25T09:04:08;96664.56;;;5.63
34310;BMP280;61664;48.112;11.662;2023-01-25T09:06:35;96662.31;;;5.61
34310;BMP280;61664;48.112;11.662;2023-01-25T09:09:02;96642.66;;;5.55
34310;BMP280;61664;48.112;11.662;2023-01-25T09:11:34;96662.25;;;5.68
34310;BMP280;61664;48.112;11.662;2023-01-25T09:14:03;96651.25;;;5.70
34310;BMP280;61664;48.112;11.662;2023-01-25T09:16:30;96650.50;;;5.69
34310;BMP280;61664;48.112;11.662;2023-01-25T09:19:00;96658.41;;;5.77
34310;BMP280;61664;48.112;11.662;2023-01-25T09:21:28;96661.81;;;5.77
34310;BMP280;61664;48.112;11.662;2023-01-25T09:23:56;96656.88;;;5.79
34310;BMP280;61664;48.112;11.662;2023-01-25T09:26:35;96660.66;;;5.82
34310;BMP280;61664;48.112;11.662;2023-01-25T09:29:02;96657.66;;;5.76
34310;BMP280;61664;48.112;11.662;2023-01-25T09:31:29;96647.78;;;5.77
34310;BMP280;61664;48.112;11.662;2023-01-25T09:33:56;96664.06;;;5.82
34310;BMP280;61664;48.112;11.662;2023-01-25T09:36:24;96667.47;;;5.79
34310;BMP280;61664;48.112;11.662;2023-01-25T09:38:51;96656.22;;;5.68
34310;BMP280;61664;48.112;11.662;2023-01-25T09:47:57;96653.59;;;5.64
34310;BMP280;61664;48.112;11.662;2023-01-25T09:50:35;96644.13;;;5.63
34310;BMP280;61664;48.112;11.662;2023-01-25T09:53:26;96658.41;;;5.77
34310;BMP280;61664;48.112;11.662;2023-01-25T09:56:21;96652.72;;;5.82
34310;BMP280;61664;48.112;11.662;2023-01-25T09:58:50;96646.97;;;5.87
34310;BMP280;61664;48.112;11.662;2023-01-25T10:01:33;96636.41;;;5.83
34310;BMP280;61664;48.112;11.662;2023-01-25T10:04:34;96639.00;;;5.87
34310;BMP280;61664;48.112;11.662;2023-01-25T10:07:27;96631.84;;;5.84
34310;BMP280;61664;48.112;11.662;2023-01-25T10:10:05;96620.03;;;5.92
34310;BMP280;61664;48.112;11.662;2023-01-25T10:12:36;96630.94;;;6.01
34310;BMP280;61664;48.112;11.662;2023-01-25T10:15:21;96634.78;;;5.93
34310;BMP280;61664;48.112;11.662;2023-01-25T10:18:26;96627.25;;;5.88
34310;BMP280;61664;48.112;11.662;2023-01-25T10:21:12;96624.59;;;5.88
34310;BMP280;61664;48.112;11.662;2023-01-25T10:30:28;96601.53;;;5.85
34310;BMP280;61664;48.112;11.662;2023-01-25T10:33:18;96613.59;;;5.89
34310;BMP280;61664;48.112;11.662;2023-01-25T10:35:48;96609.84;;;5.87
34310;BMP280;61664;48.112;11.662;2023-01-25T10:38:24;96607.91;;;5.91
34310;BMP280;61664;48.112;11.662;2023-01-25T10:41:20;96598.41;;;5.93
34310;BMP280;61664;48.112;11.662;2023-01-25T10:43:52;96601.44;;;5.92
34310;BMP280;61664;48.112;11.662;2023-01-25T10:46:45;96602.53;;;5.98
34310;BMP280;61664;48.112;11.662;2023-01-25T10:52:25;96585.47;;;5.99
34310;BMP280;61664;48.112;11.662;2023-01-25T10:55:17;96588.38;;;6.08
34310;BMP280;61664;48.112;11.662;2023-01-25T10:57:49;96576.63;;;6.09
34310;BMP280;61664;48.112;11.662;2023-01-25T11:00:39;96574.38;;;6.08
34310;BMP280;61664;48.112;11.662;2023-01-25T11:03:20;96576.56;;;6.16
34310;BMP280;61664;48.112;11.662;2023-01-25T11:05:54;96576.91;;;6.18
34310;BMP280;61664;48.112;11.662;2023-01-25T11:08:33;96560.25;;;6.18
34310;BMP280;61664;48.112;11.662;2023-01-25T11:11:36;96561.72;;;6.22
34310;BMP280;61664;48.112;11.662;2023-01-25T11:14:16;96555.63;;;6.25
34310;BMP280;61664;48.112;11.662;2023-01-25T11:16:46;96554.47;;;6.26
34310;BMP280;61664;48.112;11.662;2023-01-25T11:22:18;96538.53;;;6.26
34310;BMP280;61664;48.112;11.662;2023-01-25T11:24:46;96531.72;;;6.25
34310;BMP280;61664;48.112;11.662;2023-01-25T11:27:26;96528.97;;;6.32
34310;BMP280;61664;48.112;11.662;2023-01-25T11:30:15;96530.03;;;6.42
34310;BMP280;61664;48.112;11.662;2023-01-25T11:32:43;96526.97;;;6.44
34310;BMP280;61664;48.112;11.662;2023-01-25T11:35:28;96519.03;;;6.40
34310;BMP280;61664;48.112;11.662;2023-01-25T11:38:13;96518.16;;;6.47
34310;BMP280;61664;48.112;11.662;2023-01-25T11:41:23;96517.75;;;6.52
34310;BMP280;61664;48.112;11.662;2023-01-25T11:50:01;96502.13;;;6.57
34310;BMP280;61664;48.112;11.662;2023-01-25T12:08:25;96468.75;;;6.56
34310;BMP280;61664;48.112;11.662;2023-01-25T12:11:15;96449.88;;;6.51
34310;BMP280;61664;48.112;11.662;2023-01-25T12:19:43;96441.44;;;6.56
34310;BMP280;61664;48.112;11.662;2023-01-25T12:25:57;96431.47;;;6.63
34310;BMP280;61664;48.112;11.662;2023-01-25T12:28:41;96423.09;;;6.65
34310;BMP280;61664;48.112;11.662;2023-01-25T12:31:36;96420.78;;;6.67
34310;BMP280;61664;48.112;11.662;2023-01-25T12:34:18;96402.38;;;6.56
34310;BMP280;61664;48.112;11.662;2023-01-25T12:36:49;96405.78;;;6.57
34310;BMP280;61664;48.112;11.662;2023-01-25T12:39:19;96417.91;;;6.58
34310;BMP280;61664;48.112;11.662;2023-01-25T12:42:20;96409.63;;;6.52
34310;BMP280;61664;48.112;11.662;2023-01-25T12:45:10;96414.94;;;6.52
34310;BMP280;61664;48.112;11.662;2023-01-25T12:47:48;96402.84;;;6.48
34310;BMP280;61664;48.112;11.662;2023-01-25T12:50:27;96393.38;;;6.47
34310;BMP280;61664;48.112;11.662;2023-01-25T12:53:46;96395.63;;;6.48
34310;BMP280;61664;48.112;11.662;2023-01-25T12:59:52;96389.69;;;6.41
34310;BMP280;61664;48.112;11.662;2023-01-25T13:05:37;96391.00;;;6.29
34310;BMP280;61664;48.112;11.662;2023-01-25T13:08:13;96384.53;;;6.30
34310;BMP280;61664;48.112;11.662;2023-01-25T13:11:38;96383.78;;;6.29
34310;BMP280;61664;48.112;11.662;2023-01-25T13:14:38;96367.97;;;6.22
34310;BMP280;61664;48.112;11.662;2023-01-25T13:17:30;96383.50;;;6.24
34310;BMP280;61664;48.112;11.662;2023-01-25T13:28:56;96370.06;;;6.08
34310;BMP280;61664;48.112;11.662;2023-01-25T13:37:21;96376.47;;;6.10
34310;BMP280;61664;48.112;11.662;2023-01-25T13:40:05;96376.47;;;6.10
34310;BMP280;61664;48.112;11.662;2023-01-25T13:43:05;96367.88;;;6.03
34310;BMP280;61664;48.112;11.662;2023-01-25T13:45:34;96371.59;;;6.05
34310;BMP280;61664;48.112;11.662;2023-01-25T13:48:10;96368.91;;;6.09
34310;BMP280;61664;48.112;11.662;2023-01-25T13:50:51;96362.50;;;6.06
34310;BMP280;61664;48.112;11.662;2023-01-25T13:53:23;96364.00;;;6.07
34310;BMP280;61664;48.112;11.662;2023-01-25T13:55:52;96348.25;;;5.96
34310;BMP280;61664;48.112;11.662;2023-01-25T14:01:18;96346.59;;;6.06
34310;BMP280;61664;48.112;11.662;2023-01-25T14:03:58;96347.28;;;6.10
34310;BMP280;61664;48.112;11.662;2023-01-25T14:06:37;96346.25;;;6.04
34310;BMP280;61664;48.112;11.662;2023-01-25T14:09:14;96350.84;;;6.00
34310;BMP280;61664;48.112;11.662;2023-01-25T14:14:32;96340.16;;;5.77
34310;BMP280;61664;48.112;11.662;2023-01-25T14:17:17;96350.84;;;5.73
34310;BMP280;61664;48.112;11.662;2023-01-25T14:19:52;96341.78;;;5.67
34310;BMP280;61664;48.112;11.662;2023-01-25T14:22:27;96340.75;;;5.61
34310;BMP280;61664;48.112;11.662;2023-01-25T14:25:17;96341.59;;;5.54
34310;BMP280;61664;48.112;11.662;2023-01-25T14:27:52;96340.84;;;5.50
34310;BMP280;61664;48.112;11.662;2023-01-25T14:30:27;96327.78;;;5.36
34310;BMP280;61664;48.112;11.662;2023-01-25T14:32:58;96327.91;;;5.25
34310;BMP280;61664;48.112;11.662;2023-01-25T14:41:13;96327.66;;;5.13
34310;BMP280;61664;48.112;11.662;2023-01-25T14:43:46;96316.75;;;5.07
34310;BMP280;61664;48.112;11.662;2023-01-25T14:46:36;96320.94;;;5.04
34310;BMP280;61664;48.112;11.662;2023-01-25T14:51:48;96314.03;;;5.11
34310;BMP280;61664;48.112;11.662;2023-01-25T14:54:23;96309.84;;;5.13
34310;BMP280;61664;48.112;11.662;2023-01-25T14:56:57;96311.66;;;5.20
34310;BMP280;61664;48.112;11.662;2023-01-25T14:59:29;96316.91;;;5.27
34310;BMP280;61664;48.112;11.662;2023-01-25T15:08:12;96311.94;;;5.29
34310;BMP280;61664;48.112;11.662;2023-01-25T15:10:55;96293.22;;;5.13
34310;BMP280;61664;48.112;11.662;2023-01-25T15:13:25;96316.63;;;5.18
34310;BMP280;61664;48.112;11.662;2023-01-25T15:15:58;96306.47;;;5.13
34310;BMP280;61664;48.112;11.662;2023-01-25T15:18:46;96297.41;;;5.10
34310;BMP280;61664;48.112;11.662;2023-01-25T15:21:19;96299.19;;;5.20
34310;BMP280;61664;48.112;11.662;2023-01-25T15:23:49;96292.34;;;5.23
34310;BMP280;61664;48.112;11.662;2023-01-25T15:26:26;96293.84;;;5.24
34310;BMP280;61664;48.112;11.662;2023-01-25T15:29:00;96293.13;;;5.20
34310;BMP280;61664;48.112;11.662;2023-01-25T15:31:30;96293.13;;;5.20
34310;BMP280;61664;48.112;11.662;2023-01-25T15:33:59;96278.75;;;5.21
34310;BMP280;61664;48.112;11.662;2023-01-25T15:36:32;96282.50;;;5.23
34310;BMP280;61664;48.112;11.662;2023-01-25T15:38:59;96284.75;;;5.25
34310;BMP280;61664;48.112;11.662;2023-01-25T15:41:26;96274.97;;;5.22
34310;BMP280;61664;48.112;11.662;2023-01-25T15:43:53;96282.13;;;5.25
34310;BMP280;61664;48.112;11.662;2023-01-25T15:46:25;96265.13;;;5.22
34310;BMP280;61664;48.112;11.662;2023-01-25T15:48:53;96272.56;;;5.31
34310;BMP280;61664;48.112;11.662;2023-01-25T15:51:20;96269.91;;;5.31
34310;BMP280;61664;48.112;11.662;2023-01-25T15:53:48;96269.81;;;5.38
34310;BMP280;61664;48.112;11.662;2023-01-25T15:56:24;96264.13;;;5.39
34310;BMP280;61664;48.112;11.662;2023-01-25T15:58:58;96261.78;;;5.45
34310;BMP280;61664;48.112;11.662;2023-01-25T16:01:29;96267.09;;;5.45
34310;BMP280;61664;48.112;11.662;2023-01-25T16:03:58;96261.09;;;5.41
34310;BMP280;61664;48.112;11.662;2023-01-25T16:06:49;96237.66;;;5.36
34310;BMP280;61664;48.112;11.662;2023-01-25T16:09:25;96257.63;;;5.44
34310;BMP280;61664;48.112;11.662;2023-01-25T16:11:58;96262.97;;;5.41
34310;BMP280;61664;48.112;11.662;2023-01-25T16:14:28;96262.63;;;5.38
34310;BMP280;61664;48.112;11.662;2023-01-25T16:17:01;96251.28;;;5.38
34310;BMP280;61664;48.112;11.662;2023-01-25T16:19:29;96250.53;;;5.37
34310;BMP280;61664;48.112;11.662;2023-01-25T16:21:57;96255.03;;;5.41